createdAt,value
2018-12-17T00:01:51.912Z,37.00
2018-12-17T00:04:22.664Z,37.13
2018-12-17T00:06:53.389Z,37.13
2018-12-17T00:09:24.190Z,39.73
2018-12-17T00:11:56.070Z,35.63
2018-12-17T00:14:26.856Z,41.77
2018-12-17T00:16:57.596Z,34.37
2018-12-17T00:19:28.449Z,33.73
2018-12-17T00:21:59.184Z,39.70
2018-12-17T00:24:29.977Z,37.77
2018-12-17T00:27:00.716Z,31.47
2018-12-17T00:29:33.586Z,36.63
2018-12-17T00:32:04.328Z,43.85
2018-12-17T00:34:35.068Z,46.43
2018-12-17T00:37:05.792Z,39.73
2018-12-17T00:39:36.564Z,48.67
2018-12-17T00:42:07.306Z,41.57
2018-12-17T00:44:38.053Z,43.53
2018-12-17T00:47:08.774Z,51.03
2018-12-17T00:49:39.506Z,42.47
2018-12-17T00:52:10.333Z,48.83
2018-12-17T00:54:41.122Z,55.50
2018-12-17T00:57:11.850Z,39.87
2018-12-17T00:59:42.699Z,45.80
2018-12-17T01:02:13.580Z,46.93
2018-12-17T01:04:44.346Z,45.93
2018-12-17T01:07:17.217Z,55.20
2018-12-17T01:09:48.010Z,43.42
2018-12-17T01:12:32.665Z,42.20
2018-12-17T01:15:04.170Z,49.85
2018-12-17T01:17:35.036Z,52.98
2018-12-17T01:20:06.017Z,43.83
2018-12-17T01:22:36.745Z,55.03
2018-12-17T01:25:07.492Z,49.10
2018-12-17T01:27:38.252Z,50.87
2018-12-17T01:30:09.148Z,49.33
2018-12-17T01:32:40.296Z,45.53
2018-12-17T01:35:11.167Z,51.30
2018-12-17T01:37:41.912Z,50.97
2018-12-17T01:40:12.706Z,49.63
2018-12-17T01:42:43.466Z,47.67
2018-12-17T01:45:14.356Z,56.80
2018-12-17T01:47:45.111Z,47.23
2018-12-17T01:50:15.949Z,61.70
2018-12-17T01:52:46.689Z,55.97
2018-12-17T01:55:17.419Z,51.40
2018-12-17T01:57:48.134Z,57.60
2018-12-17T02:00:19.007Z,54.00
2018-12-17T02:02:49.762Z,53.03
2018-12-17T02:05:20.493Z,55.67
2018-12-17T02:07:51.267Z,62.87
2018-12-17T02:10:22.012Z,55.17
2018-12-17T02:12:52.765Z,56.37
2018-12-17T02:15:23.630Z,51.50
2018-12-17T02:17:54.688Z,54.63
2018-12-17T02:20:25.559Z,61.23
2018-12-17T02:22:56.293Z,54.27
2018-12-17T02:25:27.164Z,68.83
2018-12-17T02:27:57.994Z,53.40
2018-12-17T02:30:28.794Z,56.17
2018-12-17T02:32:59.547Z,59.07
2018-12-17T02:35:30.301Z,69.27
2018-12-17T02:38:01.026Z,56.13
2018-12-17T02:40:31.810Z,48.40
2018-12-17T02:43:02.551Z,67.03
2018-12-17T02:45:33.328Z,54.80
2018-12-17T02:48:04.059Z,65.97
2018-12-17T02:50:34.836Z,60.83
2018-12-17T02:53:05.657Z,63.37
2018-12-17T02:55:36.384Z,61.43
2018-12-17T02:58:07.130Z,66.27
2018-12-17T03:00:38.000Z,66.77
2018-12-17T03:03:08.734Z,54.73
2018-12-17T03:05:39.476Z,58.77
2018-12-17T03:08:10.192Z,61.07
2018-12-17T03:10:40.963Z,53.23
2018-12-17T03:13:11.843Z,60.47
2018-12-17T03:15:42.618Z,56.27
2018-12-17T03:18:13.388Z,59.87
2018-12-17T03:20:44.506Z,56.10
2018-12-17T03:23:15.272Z,54.83
2018-12-17T03:25:46.052Z,50.30
2018-12-17T03:28:16.797Z,55.77
2018-12-17T03:30:47.619Z,47.63
2018-12-17T03:33:18.351Z,55.00
2018-12-17T03:35:49.132Z,50.77
2018-12-17T03:38:19.857Z,57.10
2018-12-17T03:40:50.634Z,56.47
2018-12-17T03:43:21.450Z,48.97
2018-12-17T03:45:52.199Z,61.57
2018-12-17T03:48:22.944Z,52.57
2018-12-17T03:50:53.693Z,56.90
2018-12-17T03:53:24.428Z,48.80
2018-12-17T03:55:55.201Z,45.90
2018-12-17T03:58:25.916Z,50.37
2018-12-17T04:00:56.804Z,52.83
2018-12-17T04:03:27.529Z,47.13
2018-12-17T04:05:58.292Z,55.93
2018-12-17T04:08:29.176Z,55.00
2018-12-17T04:10:59.949Z,50.03
2018-12-17T04:13:30.674Z,65.27
2018-12-17T04:16:01.556Z,63.07
2018-12-17T04:18:32.705Z,58.87
2018-12-17T04:21:03.625Z,58.90
2018-12-17T04:23:34.359Z,60.07
2018-12-17T04:26:05.111Z,56.27
2018-12-17T04:28:35.851Z,62.20
2018-12-17T04:31:06.612Z,57.83
2018-12-17T04:33:37.437Z,48.37
2018-12-17T04:36:08.356Z,59.10
2018-12-17T04:38:39.096Z,52.67
2018-12-17T04:41:09.881Z,51.77
2018-12-17T04:43:40.601Z,64.87
2018-12-17T04:46:11.373Z,55.53
2018-12-17T04:48:42.105Z,53.17
2018-12-17T04:51:12.949Z,55.70
2018-12-17T04:53:43.778Z,64.30
2018-12-17T04:56:14.564Z,58.90
2018-12-17T04:58:45.398Z,59.00
2018-12-17T05:01:16.296Z,50.00
2018-12-17T05:03:47.067Z,59.90
2018-12-17T05:06:17.796Z,52.30
2018-12-17T05:08:48.545Z,46.53
2018-12-17T05:11:19.323Z,54.33
2018-12-17T05:13:50.154Z,52.57
2018-12-17T05:16:20.912Z,56.27
2018-12-17T05:18:51.639Z,52.90
2018-12-17T05:21:22.410Z,54.93
2018-12-17T05:23:53.124Z,66.00
2018-12-17T05:26:23.888Z,58.33
2018-12-17T05:28:54.613Z,50.47
2018-12-17T05:31:25.350Z,51.53
2018-12-17T05:33:56.152Z,54.47
2018-12-17T05:36:26.912Z,59.63
2018-12-17T05:38:57.649Z,61.73
2018-12-17T05:41:28.423Z,54.50
2018-12-17T05:43:59.142Z,53.30
2018-12-17T05:46:29.960Z,56.80
2018-12-17T05:49:00.714Z,48.83
2018-12-17T05:51:31.569Z,48.07
2018-12-17T05:54:02.412Z,46.77
2018-12-17T05:56:33.199Z,52.43
2018-12-17T05:59:04.027Z,56.93
2018-12-17T06:01:34.824Z,50.33
2018-12-17T06:04:05.554Z,45.83
2018-12-17T06:06:36.331Z,48.03
2018-12-17T06:09:09.072Z,51.67
2018-12-17T06:11:40.188Z,45.20
2018-12-17T06:14:10.925Z,54.27
2018-12-17T06:16:41.685Z,55.80
2018-12-17T06:19:12.407Z,56.67
2018-12-17T06:21:43.297Z,61.53
2018-12-17T06:24:14.033Z,59.27
2018-12-17T06:26:44.920Z,46.77
2018-12-17T06:29:15.628Z,51.17
2018-12-17T06:31:46.418Z,49.47
2018-12-17T06:34:17.137Z,48.87
2018-12-17T06:36:47.924Z,56.20
2018-12-17T06:39:18.655Z,48.90
2018-12-17T06:41:49.391Z,53.43
2018-12-17T06:44:20.120Z,49.10
2018-12-17T06:46:50.877Z,51.00
2018-12-17T06:49:21.602Z,47.93
2018-12-17T06:51:53.048Z,48.20
2018-12-17T06:54:23.996Z,51.10
2018-12-17T06:56:54.736Z,47.30
2018-12-17T06:59:25.471Z,46.00
2018-12-17T07:01:56.457Z,48.30
2018-12-17T07:04:27.182Z,45.73
2018-12-17T07:06:57.953Z,51.43
2018-12-17T07:09:28.658Z,47.20
2018-12-17T07:11:59.429Z,45.47
2018-12-17T07:14:36.315Z,46.10
2018-12-17T07:17:03.033Z,49.40
2018-12-17T07:19:39.730Z,47.33
2018-12-17T07:22:10.549Z,54.05
2018-12-17T07:24:41.350Z,47.93
2018-12-17T07:27:12.207Z,49.93
2018-12-17T07:29:49.545Z,50.70
2018-12-17T07:32:15.826Z,54.50
2018-12-17T07:34:46.841Z,46.80
2018-12-17T07:37:17.812Z,48.95
2018-12-17T07:39:48.751Z,45.77
2018-12-17T07:42:19.669Z,47.70
2018-12-17T07:44:50.456Z,46.97
2018-12-17T07:47:21.263Z,46.23
2018-12-17T07:49:52.073Z,47.37
2018-12-17T07:52:22.866Z,44.90
2018-12-17T07:54:53.636Z,44.20
2018-12-17T07:57:24.509Z,48.67
2018-12-17T07:59:56.906Z,43.63
2018-12-17T08:02:28.084Z,41.33
2018-12-17T08:04:58.894Z,52.50
2018-12-17T08:07:29.774Z,46.40
2018-12-17T08:10:00.528Z,42.93
2018-12-17T08:12:31.377Z,42.70
2018-12-17T08:15:02.790Z,42.83
2018-12-17T08:17:33.707Z,43.23
2018-12-17T08:20:05.183Z,39.97
2018-12-17T08:22:36.014Z,51.35
2018-12-17T08:25:06.906Z,37.70
2018-12-17T08:27:37.707Z,48.70
2018-12-17T08:30:08.618Z,43.47
2018-12-17T08:32:39.431Z,41.57
2018-12-17T08:35:10.233Z,46.87
2018-12-17T08:37:41.084Z,37.40
2018-12-17T08:40:12.922Z,44.80
2018-12-17T08:42:43.770Z,46.68
2018-12-17T08:45:14.536Z,48.57
2018-12-17T08:47:45.377Z,48.80
2018-12-17T08:50:18.208Z,47.07
2018-12-17T08:52:49.155Z,43.20
2018-12-17T08:55:19.965Z,42.77
2018-12-17T08:57:50.807Z,47.50
2018-12-17T09:00:21.622Z,57.43
2018-12-17T09:02:52.408Z,41.93
2018-12-17T09:05:23.252Z,40.17
2018-12-17T09:07:54.094Z,45.37
2018-12-17T09:10:24.943Z,41.07
2018-12-17T09:12:55.819Z,44.00
2018-12-17T09:15:26.612Z,46.43
2018-12-17T09:17:58.472Z,48.50
2018-12-17T09:20:29.293Z,50.12
2018-12-17T09:23:01.158Z,44.60
2018-12-17T09:25:32.146Z,44.03
2018-12-17T09:28:03.114Z,45.88
2018-12-17T09:30:41.291Z,43.27
2018-12-17T09:33:09.862Z,46.28
2018-12-17T09:35:40.651Z,49.98
2018-12-17T09:38:11.583Z,40.67
2018-12-17T09:40:42.385Z,52.37
2018-12-17T09:43:13.328Z,45.27
2018-12-17T09:45:44.128Z,54.00
2018-12-17T09:48:15.030Z,49.73
2018-12-17T09:50:45.802Z,44.57
2018-12-17T09:53:16.591Z,47.10
2018-12-17T09:55:47.373Z,52.00
2018-12-17T09:58:18.268Z,46.73
2018-12-17T10:57:20.949Z,44.08
2018-12-17T10:59:51.725Z,52.37
2018-12-17T11:02:24.624Z,57.07
2018-12-17T11:04:57.449Z,47.62
2018-12-17T11:07:28.246Z,49.67
2018-12-17T11:10:01.139Z,53.70
2018-12-17T11:12:31.908Z,56.88
2018-12-17T11:15:04.673Z,48.83
2018-12-17T11:17:35.408Z,59.15
2018-12-17T11:20:06.412Z,48.20
2018-12-17T11:22:37.365Z,61.10
2018-12-17T11:25:08.286Z,54.23
2018-12-17T11:27:39.016Z,54.03
2018-12-17T11:30:09.856Z,57.63
2018-12-17T11:32:54.646Z,56.53
2018-12-17T11:35:25.385Z,61.85
2018-12-17T11:38:02.534Z,51.60
2018-12-17T11:43:35.393Z,56.10
2018-12-17T11:46:08.176Z,63.05
2018-12-17T11:48:39.624Z,61.83
2018-12-17T11:51:10.452Z,58.87
2018-12-17T11:53:48.746Z,62.73
2018-12-17T11:56:23.489Z,55.00
2018-12-17T11:59:05.642Z,64.10
2018-12-17T12:01:36.426Z,69.35
2018-12-17T12:04:09.233Z,64.13
2018-12-17T12:06:39.989Z,54.15
2018-12-17T12:09:12.728Z,72.33
2018-12-17T12:14:48.586Z,58.95
2018-12-17T12:17:31.995Z,59.98
2018-12-17T12:20:03.349Z,51.40
2018-12-17T12:22:36.233Z,56.35
2018-12-17T12:25:06.965Z,57.13
2018-12-17T12:27:38.830Z,54.80
2018-12-17T12:30:12.092Z,49.10
2018-12-17T12:32:42.840Z,59.35
2018-12-17T12:35:13.596Z,57.03
2018-12-17T12:37:44.452Z,57.50
2018-12-17T12:40:17.265Z,60.80
2018-12-17T12:42:51.666Z,57.27
2018-12-17T12:45:20.765Z,67.67
2018-12-17T12:47:51.510Z,57.13
2018-12-17T12:50:23.277Z,66.00
2018-12-17T12:52:54.032Z,68.12
2018-12-17T12:55:24.757Z,59.93
2018-12-17T12:58:03.678Z,66.77
2018-12-17T13:00:35.227Z,72.80
2018-12-17T13:03:05.997Z,65.20
2018-12-17T13:05:36.732Z,71.70
2018-12-17T13:08:07.514Z,66.80
2018-12-17T13:10:46.678Z,71.43
2018-12-17T13:13:26.136Z,76.05
2018-12-17T13:15:56.889Z,69.55
2018-12-17T13:18:29.838Z,64.73
2018-12-17T13:21:20.181Z,66.72
2018-12-17T13:23:52.022Z,66.00
2018-12-17T13:26:28.773Z,63.13
2018-12-17T13:28:59.553Z,69.22
2018-12-17T13:31:39.280Z,69.20
2018-12-17T13:34:10.115Z,72.05
2018-12-17T13:36:44.155Z,83.13
2018-12-17T13:39:14.958Z,78.35
2018-12-17T13:41:46.785Z,79.13
2018-12-17T13:44:18.542Z,82.02
2018-12-17T13:46:51.319Z,80.03
2018-12-17T13:49:22.297Z,81.82
2018-12-17T13:52:00.296Z,69.53
2018-12-17T13:54:32.050Z,83.27
2018-12-17T13:57:04.031Z,81.05
2018-12-17T13:59:36.144Z,78.30
2018-12-17T14:02:10.023Z,86.67
2018-12-17T14:04:40.775Z,81.28
2018-12-17T14:07:11.985Z,76.87
2018-12-17T14:09:55.734Z,85.57
2018-12-17T14:12:26.484Z,96.32
2018-12-17T14:14:57.255Z,87.83
2018-12-17T14:17:34.235Z,71.83
2018-12-17T14:20:11.996Z,74.95
2018-12-17T14:22:43.789Z,81.17
2018-12-17T14:25:14.668Z,73.20
2018-12-17T14:27:45.398Z,94.33
2018-12-17T14:30:16.273Z,79.27
2018-12-17T14:32:47.058Z,105.80
2018-12-17T14:35:17.800Z,87.37
2018-12-17T14:37:54.677Z,90.37
2018-12-17T14:40:25.437Z,90.97
2018-12-17T14:42:56.265Z,91.20
2018-12-17T14:45:27.133Z,86.83
2018-12-17T14:47:57.884Z,94.63
2018-12-17T14:50:28.693Z,94.60
2018-12-17T14:56:03.438Z,90.67
2018-12-17T14:58:34.267Z,97.03
2018-12-17T15:01:05.030Z,103.23
2018-12-17T15:03:35.765Z,99.93
2018-12-17T15:06:06.493Z,95.03
2018-12-17T15:08:37.241Z,95.37
2018-12-17T15:11:08.015Z,86.70
2018-12-17T15:13:38.761Z,82.67
2018-12-17T15:16:09.515Z,89.03
2018-12-17T15:18:40.260Z,85.97
2018-12-17T15:21:11.093Z,85.77
2018-12-17T15:23:41.857Z,88.67
2018-12-17T15:26:19.586Z,87.77
2018-12-17T15:28:50.337Z,90.30
2018-12-17T15:31:21.118Z,85.37
2018-12-17T15:33:51.987Z,83.70
2018-12-17T15:36:22.845Z,74.47
2018-12-17T15:38:53.588Z,90.60
2018-12-17T15:41:24.420Z,74.30
2018-12-17T15:43:55.160Z,87.40
2018-12-17T15:46:26.036Z,79.13
2018-12-17T15:48:56.805Z,75.83
2018-12-17T15:51:27.576Z,83.37
2018-12-17T15:53:58.343Z,93.63
2018-12-17T15:56:29.070Z,82.57
2018-12-17T15:58:59.810Z,82.67
2018-12-17T16:01:30.541Z,79.63
2018-12-17T16:04:01.311Z,74.47
2018-12-17T16:06:32.145Z,77.00
2018-12-17T16:09:05.201Z,79.60
2018-12-17T16:11:35.965Z,76.60
2018-12-17T16:14:06.781Z,74.17
2018-12-17T16:16:37.517Z,69.93
2018-12-17T16:19:08.233Z,72.30
2018-12-17T16:21:38.983Z,56.57
2018-12-17T16:24:09.728Z,67.50
2018-12-17T16:26:40.479Z,66.53
2018-12-17T16:29:11.220Z,61.63
2018-12-17T16:31:41.949Z,69.40
2018-12-17T16:34:12.695Z,75.03
2018-12-17T16:36:43.971Z,60.13
2018-12-17T16:39:14.761Z,70.05
2018-12-17T16:41:45.513Z,64.27
2018-12-17T16:44:16.235Z,61.33
2018-12-17T16:46:46.988Z,54.90
2018-12-17T16:49:17.735Z,65.67
2018-12-17T16:51:48.498Z,59.43
2018-12-17T16:54:19.349Z,60.73
2018-12-17T16:56:50.088Z,60.77
2018-12-17T16:59:20.868Z,62.30
2018-12-17T17:01:51.664Z,67.80
2018-12-17T17:04:22.487Z,65.20
2018-12-17T17:06:53.280Z,63.73
2018-12-17T17:09:24.188Z,55.93
2018-12-17T17:11:54.949Z,60.17
2018-12-17T17:14:25.708Z,61.07
2018-12-17T17:16:56.570Z,59.17
2018-12-17T17:19:27.312Z,50.63
2018-12-17T17:21:58.300Z,52.00
2018-12-17T17:24:29.104Z,66.22
2018-12-17T17:26:59.830Z,61.80
2018-12-17T17:29:30.576Z,84.60
2018-12-17T17:32:01.306Z,64.27
2018-12-17T17:34:32.066Z,76.83
2018-12-17T17:37:02.982Z,62.97
2018-12-17T17:39:33.834Z,79.37
2018-12-17T17:42:04.826Z,111.37
2018-12-17T17:44:35.638Z,73.60
2018-12-17T17:47:06.424Z,56.20
2018-12-17T17:49:37.210Z,60.37
2018-12-17T17:52:07.985Z,68.10
2018-12-17T17:54:38.729Z,57.40
2018-12-17T17:57:09.583Z,59.27
2018-12-17T17:59:40.321Z,51.43
2018-12-17T18:02:11.065Z,50.60
2018-12-17T18:04:41.838Z,71.40
2018-12-17T18:07:12.607Z,60.40
2018-12-17T18:09:43.361Z,51.50
2018-12-17T18:12:14.234Z,52.47
2018-12-17T18:14:45.011Z,67.30
2018-12-17T18:17:15.768Z,51.60
2018-12-17T18:19:46.549Z,59.30
2018-12-17T18:22:17.321Z,62.43
2018-12-17T18:24:48.075Z,58.17
2018-12-17T18:27:18.837Z,55.27
2018-12-17T18:29:49.581Z,55.87
2018-12-17T18:32:26.006Z,62.23
2018-12-17T18:34:53.149Z,58.05
2018-12-17T18:37:23.939Z,60.17
2018-12-17T18:39:54.681Z,51.70
2018-12-17T18:42:25.478Z,56.70
2018-12-17T18:44:56.357Z,51.97
2018-12-17T18:47:27.267Z,59.10
2018-12-17T18:49:58.013Z,61.07
2018-12-17T18:52:28.921Z,52.43
2018-12-17T18:54:59.680Z,48.70
2018-12-17T18:57:30.547Z,54.20
2018-12-17T19:00:01.526Z,49.67
2018-12-17T19:02:33.198Z,50.57
2018-12-17T19:05:04.248Z,48.28
2018-12-17T19:07:35.051Z,56.37
2018-12-17T19:10:05.933Z,47.67
2018-12-17T19:12:37.132Z,57.97
2018-12-17T19:15:08.249Z,57.78
2018-12-17T19:17:39.013Z,65.23
2018-12-17T19:20:09.759Z,56.37
2018-12-17T19:22:40.561Z,56.30
2018-12-17T19:25:11.324Z,50.10
2018-12-17T19:27:42.107Z,53.17
2018-12-17T19:30:13.775Z,78.97
2018-12-17T19:32:44.620Z,64.25
2018-12-17T19:35:15.362Z,63.60
2018-12-17T19:37:46.158Z,57.70
2018-12-17T19:40:16.905Z,63.63
2018-12-17T19:42:47.677Z,65.97
2018-12-17T19:45:18.449Z,65.67
2018-12-17T19:47:49.196Z,53.40
2018-12-17T19:50:19.921Z,60.67
2018-12-17T19:52:50.741Z,63.90
2018-12-17T19:55:21.501Z,59.30
2018-12-17T19:57:52.258Z,55.60
2018-12-17T20:00:23.130Z,64.80
2018-12-17T20:02:54.023Z,55.77
2018-12-17T20:05:24.756Z,56.60
2018-12-17T20:07:55.557Z,59.53
2018-12-17T20:10:26.282Z,58.70
2018-12-17T20:12:57.076Z,69.60
2018-12-17T20:15:27.809Z,55.77
2018-12-17T20:17:58.600Z,59.07
2018-12-17T20:20:29.337Z,55.43
2018-12-17T20:23:00.111Z,54.80
2018-12-17T20:25:30.945Z,54.80
2018-12-17T20:28:01.864Z,57.20
2018-12-17T20:30:32.603Z,55.57
2018-12-17T20:33:03.398Z,50.33
2018-12-17T20:35:34.238Z,54.67
2018-12-17T20:38:05.032Z,55.70
2018-12-17T20:40:35.785Z,56.20
2018-12-17T20:43:06.546Z,59.30
2018-12-17T20:45:37.382Z,53.80
2018-12-17T20:48:08.328Z,56.40
2018-12-17T20:50:39.168Z,65.67
2018-12-17T20:53:10.193Z,56.50
2018-12-17T20:55:40.944Z,62.48
2018-12-17T20:58:11.749Z,56.30
2018-12-17T21:00:42.521Z,60.03
2018-12-17T21:03:13.271Z,55.50
2018-12-17T21:05:44.027Z,56.50
2018-12-17T21:08:14.781Z,59.00
2018-12-17T21:10:45.521Z,67.93
2018-12-17T21:13:16.345Z,58.30
2018-12-17T21:15:47.093Z,56.17
2018-12-17T21:18:17.898Z,55.60
2018-12-17T21:20:48.737Z,49.37
2018-12-17T21:23:19.911Z,60.30
2018-12-17T21:25:50.897Z,48.55
2018-12-17T21:28:21.713Z,48.90
2018-12-17T21:30:52.500Z,58.20
2018-12-17T21:33:23.264Z,56.93
2018-12-17T21:35:53.984Z,61.20
2018-12-17T21:38:24.733Z,58.20
2018-12-17T21:40:55.450Z,57.33
2018-12-17T21:43:26.226Z,60.13
2018-12-17T21:45:57.310Z,55.23
2018-12-17T21:48:28.154Z,62.45
2018-12-17T21:50:59.085Z,61.03
2018-12-17T21:53:29.922Z,57.90
2018-12-17T21:56:00.826Z,62.87
2018-12-17T21:58:31.689Z,68.90
2018-12-17T22:01:02.459Z,60.33
2018-12-17T22:03:33.612Z,59.60
2018-12-17T22:06:04.425Z,63.23
2018-12-17T22:08:35.424Z,66.70
2018-12-17T22:11:06.253Z,58.37
2018-12-17T22:13:37.158Z,63.77
2018-12-17T22:16:09.204Z,63.13
2018-12-17T22:18:40.034Z,56.20
2018-12-17T22:21:10.787Z,62.83
2018-12-17T22:23:41.569Z,60.30
2018-12-17T22:26:12.327Z,59.33
2018-12-17T22:28:50.105Z,59.13
2018-12-17T22:31:20.839Z,64.87
2018-12-17T22:33:51.615Z,61.50
2018-12-17T22:36:22.510Z,56.70
2018-12-17T22:38:53.300Z,57.67
2018-12-17T22:41:24.016Z,68.70
2018-12-17T22:43:54.790Z,70.70
2018-12-17T22:46:25.526Z,57.13
2018-12-17T22:48:56.383Z,58.07
2018-12-17T22:51:27.117Z,61.17
2018-12-17T22:53:58.114Z,61.37
2018-12-17T22:56:28.988Z,61.63
2018-12-17T22:58:59.829Z,65.97
2018-12-17T23:01:31.076Z,57.37
2018-12-17T23:04:01.969Z,57.35
2018-12-17T23:06:32.940Z,51.73
2018-12-17T23:09:05.069Z,51.68
2018-12-17T23:11:54.319Z,61.85
2018-12-17T23:14:37.507Z,57.33
2018-12-17T23:17:20.646Z,58.52
2018-12-17T23:19:51.499Z,64.53
2018-12-17T23:22:22.227Z,59.10
2018-12-17T23:24:53.225Z,66.07
2018-12-17T23:27:23.995Z,65.65
2018-12-17T23:29:54.865Z,65.07
2018-12-17T23:32:29.629Z,59.27
2018-12-17T23:35:00.635Z,57.55
2018-12-17T23:37:31.416Z,55.35
2018-12-17T23:40:03.721Z,53.77
2018-12-17T23:42:34.452Z,57.93
2018-12-17T23:45:05.310Z,55.77
2018-12-17T23:47:36.039Z,56.70
2018-12-17T23:50:06.919Z,60.20
2018-12-17T23:52:37.662Z,49.97
2018-12-17T23:55:08.524Z,58.33
2018-12-17T23:57:39.265Z,58.77
